createdAt,value
2023-12-07T00:05:11.814Z,980.21
2023-12-07T00:10:43.431Z,980.11
2023-12-07T00:16:15.397Z,980.18
2023-12-07T00:21:47.756Z,979.98
2023-12-07T00:27:18.584Z,980.08
2023-12-07T00:32:50.697Z,979.83
2023-12-07T00:38:21.914Z,979.88
2023-12-07T00:43:58.466Z,979.9
2023-12-07T00:49:29.812Z,980.24
2023-12-07T00:55:13.494Z,979.81
2023-12-07T01:00:33.328Z,979.86
2023-12-07T01:06:05.422Z,980.05
2023-12-07T01:11:36.774Z,979.54
2023-12-07T01:17:08.477Z,979.76
2023-12-07T01:22:40.485Z,980.29
2023-12-07T01:28:11.862Z,980.44
2023-12-07T01:33:43.715Z,980.2
2023-12-07T01:39:15.295Z,980.57
2023-12-07T01:44:51.502Z,980.63
2023-12-07T01:50:23.265Z,980.57
2023-12-07T01:55:54.837Z,980.63
2023-12-07T02:01:26.695Z,980.98
2023-12-07T02:06:58.669Z,980.91
2023-12-07T02:12:58.876Z,980.74
2023-12-07T02:18:05.346Z,980.86
2023-12-07T02:23:53.072Z,980.77
2023-12-07T02:29:05.199Z,980.6
2023-12-07T02:34:36.948Z,980.42
2023-12-07T02:40:09.076Z,980.27
2023-12-07T02:45:45.164Z,980.31
2023-12-07T02:51:16.439Z,980.12
2023-12-07T02:56:48.129Z,980.13
2023-12-07T03:02:19.967Z,980.01
2023-12-07T03:07:51.615Z,979.87
2023-12-07T03:13:23.675Z,979.66
2023-12-07T03:18:55.185Z,979.56
2023-12-07T03:24:27.436Z,979.52
2023-12-07T03:29:59.090Z,979.36
2023-12-07T03:35:30.337Z,979.19
2023-12-07T03:41:04.321Z,979.11
2023-12-07T03:46:38.354Z,979.16
2023-12-07T03:52:10.044Z,979.19
2023-12-07T03:57:41.938Z,979.15
2023-12-07T04:03:13.489Z,979.21
2023-12-07T04:08:45.003Z,979.15
2023-12-07T04:14:16.760Z,979.14
2023-12-07T04:19:48.664Z,979.07
2023-12-07T04:25:20.210Z,979.12
2023-12-07T04:30:51.887Z,979.09
2023-12-07T04:36:23.523Z,979.09
2023-12-07T04:41:55.619Z,979.16
2023-12-07T04:47:32.076Z,978.98
2023-12-07T04:53:03.082Z,979.03
2023-12-07T04:58:34.834Z,979.03
2023-12-07T05:04:06.740Z,979.08
2023-12-07T05:09:38.413Z,978.96
2023-12-07T05:15:09.951Z,978.83
2023-12-07T05:20:42.008Z,978.86
2023-12-07T05:26:13.549Z,978.71
2023-12-07T05:31:45.187Z,978.6
2023-12-07T05:37:17.410Z,978.56
2023-12-07T05:42:48.567Z,978.52
2023-12-07T05:48:26.940Z,978.47
2023-12-07T05:53:58.529Z,978.27
2023-12-07T05:59:30.403Z,978.22
2023-12-07T06:05:02.308Z,978.21
2023-12-07T06:10:34.072Z,978.19
2023-12-07T06:16:05.600Z,978.18
2023-12-07T06:21:37.064Z,978.27
2023-12-07T06:27:08.922Z,978.19
2023-12-07T06:32:40.760Z,978.27
2023-12-07T06:38:13.797Z,978.2
2023-12-07T06:43:44.231Z,978.21
2023-12-07T06:49:20.769Z,978.12
2023-12-07T06:54:52.140Z,978.17
2023-12-07T07:00:23.547Z,978.09
2023-12-07T07:05:55.805Z,978.08
2023-12-07T07:11:27.103Z,978.16
2023-12-07T07:16:58.816Z,978.14
2023-12-07T07:22:30.600Z,978.27
2023-12-07T07:28:02.437Z,978.31
2023-12-07T07:33:34.309Z,978.48
2023-12-07T07:39:05.649Z,978.42
2023-12-07T07:44:37.810Z,978.61
2023-12-07T07:50:13.725Z,978.9
2023-12-07T07:55:45.597Z,979.35
2023-12-07T08:01:18.466Z,979.16
2023-12-07T08:06:48.786Z,979.57
2023-12-07T08:12:20.648Z,979.66
2023-12-07T08:17:52.357Z,979.86
2023-12-07T08:23:23.935Z,979.69
2023-12-07T08:28:56.553Z,979.91
2023-12-07T08:34:27.679Z,980.08
2023-12-07T08:39:59.266Z,980.19
2023-12-07T08:45:30.990Z,980.62
2023-12-07T08:51:07.168Z,979.34
2023-12-07T08:56:38.729Z,979.99
2023-12-07T09:02:10.681Z,979.61
2023-12-07T09:07:42.527Z,979.81
2023-12-07T09:13:13.984Z,980.44
2023-12-07T09:18:45.688Z,979.89
2023-12-07T09:24:17.545Z,980.16
2023-12-07T09:29:49.045Z,980.41
2023-12-07T09:35:22.596Z,980.71
2023-12-07T09:40:53.212Z,980.86
2023-12-07T09:46:24.461Z,980.97
2023-12-07T09:52:02.812Z,981.08
2023-12-07T09:57:35.879Z,980.72
2023-12-07T10:03:06.293Z,980.69
2023-12-07T10:08:38.047Z,981.11
2023-12-07T10:14:09.366Z,981.07
2023-12-07T10:19:41.370Z,980.82
2023-12-07T10:25:13.066Z,981.69
2023-12-07T10:30:45.813Z,981.55
2023-12-07T10:36:16.457Z,981.46
2023-12-07T10:41:48.078Z,981.38
2023-12-07T10:47:19.641Z,981.33
2023-12-07T10:52:55.714Z,982.11
2023-12-07T10:58:27.558Z,982.33
2023-12-07T11:04:00.058Z,981.86
2023-12-07T11:09:31.028Z,982.16
2023-12-07T11:15:02.488Z,982.04
2023-12-07T11:20:34.799Z,982.45
2023-12-07T11:26:05.981Z,982.49
2023-12-07T11:31:37.841Z,982.96
2023-12-07T11:37:09.644Z,982.15
2023-12-07T11:42:41.156Z,983.64
2023-12-07T11:48:19.105Z,982.89
2023-12-07T11:53:51.119Z,983.25
2023-12-07T11:59:34.626Z,983.61
2023-12-07T12:04:54.850Z,983.3
2023-12-07T12:10:26.705Z,983.66
2023-12-07T12:16:01.966Z,982.65
2023-12-07T12:21:30.271Z,981.98
2023-12-07T12:27:01.296Z,981.5
2023-12-07T12:32:33.104Z,981.07
2023-12-07T12:38:05.277Z,980.52
2023-12-07T12:43:36.633Z,979.88
2023-12-07T12:49:08.752Z,979.73
2023-12-07T12:54:44.365Z,979.83
2023-12-07T13:00:16.697Z,978.62
2023-12-07T13:05:48.081Z,979.55
2023-12-07T13:11:19.612Z,979.42
2023-12-07T13:16:53.403Z,979.16
2023-12-07T13:22:23.176Z,978.99
2023-12-07T13:27:55.050Z,978.66
2023-12-07T13:33:42.800Z,978.99
2023-12-07T13:38:58.864Z,979.2
2023-12-07T13:44:30.518Z,978.73
2023-12-07T13:50:02.035Z,979.45
2023-12-07T13:55:38.669Z,978.68
2023-12-07T14:01:09.926Z,979.04
2023-12-07T14:06:41.360Z,979.19
2023-12-07T14:12:12.988Z,978.54
2023-12-07T14:17:54.667Z,979.15
2023-12-07T14:23:17.159Z,978.92
2023-12-07T14:28:48.554Z,978.49
2023-12-07T14:34:36.108Z,978.25
2023-12-07T14:39:52.164Z,978.0
2023-12-07T14:45:23.788Z,977.32
2023-12-07T14:50:55.228Z,976.7
2023-12-07T14:56:33.299Z,976.62
2023-12-07T15:02:04.742Z,976.89
2023-12-07T15:07:36.411Z,976.57
2023-12-07T15:13:08.389Z,976.51
2023-12-07T15:18:40.494Z,976.0
2023-12-07T15:24:31.122Z,975.5
2023-12-07T15:29:43.841Z,975.74
2023-12-07T15:35:15.178Z,974.47
2023-12-07T15:40:46.939Z,974.92
2023-12-07T15:46:18.739Z,974.53
2023-12-07T15:51:50.413Z,974.49
2023-12-07T15:57:29.432Z,974.8
2023-12-07T16:03:00.644Z,974.5
2023-12-07T16:08:31.978Z,973.56
2023-12-07T16:14:03.534Z,973.46
2023-12-07T16:19:35.799Z,973.57
2023-12-07T16:25:07.153Z,973.71
2023-12-07T16:30:50.015Z,973.58
2023-12-07T16:36:23.847Z,973.28
2023-12-07T16:42:01.653Z,973.28
2023-12-07T16:47:13.877Z,972.99
2023-12-07T16:52:58.939Z,972.62
2023-12-07T16:58:31.752Z,972.61
2023-12-07T17:03:56.427Z,972.23
2023-12-07T17:09:28.268Z,972.32
2023-12-07T17:14:59.072Z,972.2
2023-12-07T17:20:31.108Z,972.08
2023-12-07T17:26:02.607Z,971.63
2023-12-07T17:31:34.119Z,971.69
2023-12-07T17:37:05.951Z,972.06
2023-12-07T17:42:37.710Z,971.01
2023-12-07T17:48:09.872Z,971.27
2023-12-07T17:53:41.580Z,970.75
2023-12-07T17:59:19.077Z,971.19
2023-12-07T18:04:51.225Z,970.59
2023-12-07T18:10:23.234Z,970.07
2023-12-07T18:16:00.059Z,970.5
2023-12-07T18:21:26.282Z,970.2
2023-12-07T18:27:03.831Z,970.69
2023-12-07T18:32:29.906Z,970.51
2023-12-07T18:38:01.304Z,970.13
2023-12-07T18:43:33.027Z,969.73
2023-12-07T18:49:06.233Z,969.59
2023-12-07T18:54:36.727Z,969.08
2023-12-07T19:00:12.712Z,969.53
2023-12-07T19:05:44.777Z,969.45
2023-12-07T19:11:16.280Z,969.12
2023-12-07T19:16:47.790Z,969.01
2023-12-07T19:22:19.450Z,968.39
2023-12-07T19:27:51.281Z,968.72
2023-12-07T19:33:23.548Z,969.05
2023-12-07T19:38:54.824Z,968.8
2023-12-07T19:44:26.545Z,968.91
2023-12-07T19:49:58.168Z,969.1
2023-12-07T19:55:29.732Z,969.24
2023-12-07T20:01:06.021Z,969.03
2023-12-07T20:06:40.769Z,969.08
2023-12-07T20:12:09.639Z,969.18
2023-12-07T20:17:41.497Z,968.22
2023-12-07T20:23:12.894Z,968.49
2023-12-07T20:28:44.658Z,968.21
2023-12-07T20:34:16.476Z,968.43
2023-12-07T20:39:48.147Z,968.43
2023-12-07T20:45:19.675Z,968.59
2023-12-07T20:50:51.487Z,968.08
2023-12-07T20:56:40.750Z,967.85
2023-12-07T21:02:02.584Z,967.69
2023-12-07T21:07:32.960Z,968.35
2023-12-07T21:13:05.725Z,968.41
2023-12-07T21:18:37.065Z,968.43
2023-12-07T21:24:08.463Z,967.96
2023-12-07T21:29:40.002Z,967.76
2023-12-07T21:35:11.778Z,968.39
2023-12-07T21:40:43.507Z,968.7
2023-12-07T21:46:15.396Z,968.28
2023-12-07T21:51:46.999Z,968.12
2023-12-07T21:57:19.059Z,968.12
2023-12-07T22:02:54.943Z,966.78
2023-12-07T22:08:26.484Z,966.54
2023-12-07T22:13:59.304Z,967.12
2023-12-07T22:19:30.253Z,967.7
2023-12-07T22:25:01.941Z,966.95
2023-12-07T22:30:33.281Z,967.46
2023-12-07T22:36:05.481Z,967.42
2023-12-07T22:41:37.080Z,968.08
2023-12-07T22:47:15.589Z,967.96
2023-12-07T22:52:47.168Z,968.19
2023-12-07T22:58:18.755Z,968.15
2023-12-07T23:03:56.912Z,968.1
2023-12-07T23:09:28.751Z,967.24
2023-12-07T23:15:00.735Z,966.35
2023-12-07T23:20:32.235Z,966.48
2023-12-07T23:26:03.746Z,965.83
2023-12-07T23:31:35.625Z,965.77
2023-12-07T23:37:07.366Z,965.96
2023-12-07T23:42:39.085Z,965.71
2023-12-07T23:48:12.152Z,965.82
2023-12-07T23:53:42.683Z,966.2
2023-12-07T23:59:14.094Z,966.02
